createdAt,value
2022-12-20T00:01:49.389Z,0.87
2022-12-20T00:04:16.963Z,0.89
2022-12-20T00:06:44.220Z,0.86
2022-12-20T00:09:12.372Z,0.81
2022-12-20T00:11:41.990Z,0.79
2022-12-20T00:14:10.801Z,0.99
2022-12-20T00:16:38.912Z,0.96
2022-12-20T00:19:08.076Z,0.95
2022-12-20T00:21:36.504Z,0.94
2022-12-20T00:24:06.444Z,1.00
2022-12-20T00:26:35.867Z,1.06
2022-12-20T00:29:03.880Z,1.17
2022-12-20T00:31:32.216Z,1.12
2022-12-20T00:34:01.436Z,1.04
2022-12-20T00:36:31.631Z,1.02
2022-12-20T00:39:00.666Z,1.00
2022-12-20T00:41:32.379Z,1.12
2022-12-20T00:44:02.000Z,1.18
2022-12-20T00:46:31.767Z,1.11
2022-12-20T00:48:59.573Z,1.17
2022-12-20T00:51:30.144Z,1.23
2022-12-20T00:53:57.653Z,1.24
2022-12-20T00:56:25.759Z,1.20
2022-12-20T00:58:54.640Z,1.24
2022-12-20T01:01:30.728Z,1.32
2022-12-20T01:03:59.406Z,1.34
2022-12-20T01:06:27.666Z,1.33
2022-12-20T01:08:56.686Z,1.36
2022-12-20T01:11:39.147Z,1.30
2022-12-20T01:14:15.440Z,1.27
2022-12-20T01:16:48.379Z,1.29
2022-12-20T01:19:18.648Z,1.28
2022-12-20T01:21:46.424Z,1.33
2022-12-20T01:24:22.794Z,1.29
2022-12-20T01:26:50.197Z,1.36
2022-12-20T01:29:17.779Z,1.36
2022-12-20T01:31:45.555Z,1.38
2022-12-20T01:34:13.185Z,1.35
2022-12-20T01:36:40.507Z,1.32
2022-12-20T01:39:17.707Z,1.35
2022-12-20T01:41:47.285Z,1.39
2022-12-20T01:44:17.906Z,1.32
2022-12-20T01:46:50.673Z,1.28
2022-12-20T01:49:46.763Z,1.34
2022-12-20T01:52:23.744Z,1.23
2022-12-20T01:55:02.404Z,1.24
2022-12-20T01:57:49.631Z,1.27
2022-12-20T02:00:18.497Z,1.28
2022-12-20T02:02:50.821Z,1.36
2022-12-20T02:05:22.983Z,1.24
2022-12-20T02:07:56.811Z,1.24
2022-12-20T02:10:42.407Z,1.21
2022-12-20T02:13:25.060Z,1.26
2022-12-20T02:15:58.132Z,1.32
2022-12-20T02:18:55.161Z,1.31
2022-12-20T02:21:49.966Z,1.38
2022-12-20T02:25:13.501Z,1.31
2022-12-20T02:28:00.458Z,1.32
2022-12-20T02:30:38.124Z,1.34
2022-12-20T02:33:13.292Z,1.36
2022-12-20T02:35:42.674Z,1.45
2022-12-20T02:38:34.797Z,1.43
2022-12-20T02:41:16.406Z,1.24
2022-12-20T02:44:07.453Z,1.27
2022-12-20T02:46:37.201Z,1.28
2022-12-20T02:49:18.718Z,1.29
2022-12-20T02:51:52.576Z,1.22
2022-12-20T02:54:21.095Z,1.19
2022-12-20T02:57:00.494Z,1.22
2022-12-20T02:59:56.684Z,1.20
2022-12-20T03:02:25.956Z,1.20
2022-12-20T03:04:56.906Z,1.26
2022-12-20T03:07:24.151Z,1.22
2022-12-20T03:09:51.816Z,1.13
2022-12-20T03:12:19.113Z,1.16
2022-12-20T03:14:46.686Z,1.16
2022-12-20T03:17:14.284Z,1.10
2022-12-20T03:19:41.909Z,1.16
2022-12-20T03:22:09.191Z,1.15
2022-12-20T03:24:36.949Z,1.04
2022-12-20T03:27:04.266Z,1.08
2022-12-20T03:29:32.157Z,1.02
2022-12-20T03:31:59.365Z,0.95
2022-12-20T03:34:26.989Z,0.95
2022-12-20T03:36:54.295Z,1.03
2022-12-20T03:39:23.073Z,1.07
2022-12-20T03:41:50.751Z,1.00
2022-12-20T03:44:18.368Z,0.96
2022-12-20T03:46:45.751Z,0.95
2022-12-20T03:49:13.422Z,0.93
2022-12-20T03:51:40.715Z,0.88
2022-12-20T03:54:08.293Z,0.93
2022-12-20T03:56:35.777Z,0.94
2022-12-20T03:59:03.481Z,1.07
2022-12-20T04:01:36.809Z,0.95
2022-12-20T04:04:05.856Z,0.93
2022-12-20T04:06:33.121Z,0.88
2022-12-20T04:09:00.612Z,0.96
2022-12-20T04:11:27.940Z,1.06
2022-12-20T04:13:55.684Z,0.96
2022-12-20T04:16:29.714Z,0.97
2022-12-20T04:18:57.452Z,1.07
2022-12-20T04:21:31.883Z,0.91
2022-12-20T04:24:02.216Z,0.96
2022-12-20T04:26:29.821Z,0.98
2022-12-20T04:28:57.586Z,0.90
2022-12-20T04:31:25.257Z,1.07
2022-12-20T04:33:53.067Z,1.00
2022-12-20T04:36:21.110Z,0.99
2022-12-20T04:38:48.817Z,1.15
2022-12-20T04:41:22.774Z,1.10
2022-12-20T04:43:53.922Z,1.14
2022-12-20T04:46:23.018Z,1.02
2022-12-20T04:48:59.603Z,1.10
2022-12-20T04:51:28.633Z,1.05
2022-12-20T04:53:56.608Z,1.04
2022-12-20T04:56:29.442Z,0.97
2022-12-20T04:58:59.261Z,1.09
2022-12-20T05:01:27.255Z,1.09
2022-12-20T05:03:55.334Z,1.10
2022-12-20T05:06:22.678Z,1.07
2022-12-20T05:08:50.257Z,1.16
2022-12-20T05:11:17.854Z,1.07
2022-12-20T05:13:45.365Z,1.04
2022-12-20T05:16:12.684Z,1.13
2022-12-20T05:18:46.517Z,1.13
2022-12-20T05:21:35.142Z,1.06
2022-12-20T05:24:21.136Z,1.12
2022-12-20T05:26:48.430Z,1.09
2022-12-20T05:29:17.008Z,1.10
2022-12-20T05:31:44.386Z,1.11
2022-12-20T05:34:11.938Z,0.99
2022-12-20T05:36:39.248Z,1.05
2022-12-20T05:39:06.947Z,1.10
2022-12-20T05:41:34.238Z,1.24
2022-12-20T05:44:02.063Z,1.05
2022-12-20T05:46:29.334Z,0.95
2022-12-20T05:48:56.921Z,1.08
2022-12-20T05:51:24.782Z,1.03
2022-12-20T05:53:52.400Z,0.96
2022-12-20T05:56:19.632Z,0.89
2022-12-20T05:58:47.168Z,0.90
2022-12-20T06:01:14.735Z,0.84
2022-12-20T06:03:42.348Z,0.80
2022-12-20T06:06:14.593Z,0.76
2022-12-20T06:08:43.060Z,0.72
2022-12-20T06:11:10.563Z,0.74
2022-12-20T06:13:38.117Z,0.84
2022-12-20T06:16:05.695Z,0.77
2022-12-20T06:18:33.487Z,0.79
2022-12-20T06:21:00.801Z,0.89
2022-12-20T06:23:28.401Z,0.77
2022-12-20T06:25:55.795Z,0.74
2022-12-20T06:28:23.437Z,0.80
2022-12-20T06:30:58.509Z,0.70
2022-12-20T06:33:26.268Z,0.78
2022-12-20T06:35:53.741Z,0.71
2022-12-20T06:38:21.247Z,0.74
2022-12-20T06:40:48.501Z,0.61
2022-12-20T06:43:16.525Z,0.57
2022-12-20T06:45:43.871Z,0.59
2022-12-20T06:48:12.180Z,0.67
2022-12-20T06:50:40.156Z,0.68
2022-12-20T06:53:07.700Z,0.68
2022-12-20T06:55:35.269Z,0.74
2022-12-20T06:58:04.287Z,0.77
2022-12-20T07:00:31.882Z,0.85
2022-12-20T07:02:59.883Z,0.90
2022-12-20T07:05:27.631Z,1.02
2022-12-20T07:07:55.224Z,0.98
2022-12-20T07:10:22.478Z,1.16
2022-12-20T07:12:50.277Z,1.18
2022-12-20T07:15:17.628Z,1.15
2022-12-20T07:17:45.390Z,1.32
2022-12-20T07:20:14.047Z,1.50
2022-12-20T07:22:42.568Z,1.47
2022-12-20T07:25:11.516Z,1.59
2022-12-20T07:27:39.229Z,1.60
2022-12-20T07:30:07.515Z,1.61
2022-12-20T07:32:35.112Z,1.68
2022-12-20T07:35:02.439Z,1.62
2022-12-20T07:37:30.294Z,1.68
2022-12-20T07:39:57.601Z,1.81
2022-12-20T07:42:30.322Z,1.87
2022-12-20T07:45:02.927Z,1.80
2022-12-20T07:47:30.502Z,1.83
2022-12-20T07:49:57.700Z,1.96
2022-12-20T07:52:29.725Z,1.94
2022-12-20T07:55:04.170Z,1.99
2022-12-20T07:57:46.540Z,2.11
2022-12-20T08:00:15.168Z,2.29
2022-12-20T08:03:01.053Z,2.49
2022-12-20T08:05:29.260Z,2.59
2022-12-20T08:08:00.203Z,2.88
2022-12-20T08:10:28.997Z,3.02
2022-12-20T08:12:58.534Z,3.01
2022-12-20T08:15:28.766Z,3.28
2022-12-20T08:17:56.330Z,3.39
2022-12-20T08:20:23.763Z,3.44
2022-12-20T08:22:51.269Z,3.52
2022-12-20T08:25:18.947Z,3.58
2022-12-20T08:27:46.503Z,3.47
2022-12-20T08:30:14.496Z,3.47
2022-12-20T08:32:42.118Z,3.65
2022-12-20T08:35:09.559Z,3.67
2022-12-20T08:37:37.181Z,3.88
2022-12-20T08:40:05.199Z,4.25
2022-12-20T08:42:32.888Z,5.62
2022-12-20T08:45:00.161Z,6.85
2022-12-20T08:47:30.544Z,7.26
2022-12-20T08:49:57.834Z,7.29
2022-12-20T08:52:25.357Z,8.04
2022-12-20T08:54:52.897Z,7.39
2022-12-20T08:57:20.361Z,7.15
2022-12-20T08:59:47.890Z,7.22
2022-12-20T09:02:15.554Z,7.71
2022-12-20T09:04:44.571Z,8.22
2022-12-20T09:07:12.264Z,9.82
2022-12-20T09:09:39.572Z,10.97
2022-12-20T09:12:07.835Z,12.14
2022-12-20T09:14:35.176Z,11.72
2022-12-20T09:17:02.726Z,10.18
2022-12-20T09:19:31.231Z,8.69
2022-12-20T09:21:58.857Z,7.86
2022-12-20T09:24:26.197Z,7.45
2022-12-20T09:26:53.882Z,6.97
2022-12-20T09:29:28.304Z,6.37
2022-12-20T09:31:57.312Z,5.88
2022-12-20T09:34:24.664Z,5.88
2022-12-20T09:36:53.014Z,5.63
2022-12-20T09:39:20.324Z,5.52
2022-12-20T09:41:48.395Z,5.75
2022-12-20T09:44:32.168Z,5.78
2022-12-20T09:47:10.487Z,7.38
2022-12-20T09:49:45.924Z,10.19
2022-12-20T09:53:00.280Z,11.84
2022-12-20T09:55:47.508Z,12.62
2022-12-20T09:58:23.969Z,12.97
2022-12-20T10:00:54.387Z,14.48
2022-12-20T10:03:35.838Z,13.38
2022-12-20T10:06:47.803Z,12.65
2022-12-20T10:09:30.276Z,13.17
2022-12-20T10:12:09.837Z,13.55
2022-12-20T10:14:45.950Z,12.56
2022-12-20T10:17:32.227Z,10.69
2022-12-20T10:20:00.903Z,9.30
2022-12-20T10:22:46.996Z,8.34
2022-12-20T10:25:28.918Z,7.58
2022-12-20T10:27:57.626Z,7.13
2022-12-20T10:30:29.114Z,6.37
2022-12-20T10:32:58.883Z,6.14
2022-12-20T10:35:29.310Z,5.86
2022-12-20T10:38:12.899Z,5.52
2022-12-20T10:41:19.459Z,5.04
2022-12-20T10:43:46.309Z,4.94
2022-12-20T10:46:19.173Z,4.96
2022-12-20T10:48:49.100Z,4.86
2022-12-20T10:51:22.708Z,4.71
2022-12-20T10:54:20.173Z,4.76
2022-12-20T10:56:59.317Z,4.72
2022-12-20T10:59:37.895Z,4.92
2022-12-20T11:02:39.527Z,5.13
2022-12-20T11:05:11.498Z,5.21
2022-12-20T11:08:34.094Z,5.56
2022-12-20T11:11:23.998Z,5.97
2022-12-20T11:13:52.831Z,6.20
2022-12-20T11:16:39.107Z,6.58
2022-12-20T11:19:18.914Z,7.13
2022-12-20T11:22:24.130Z,8.35
2022-12-20T11:25:19.190Z,12.76
2022-12-20T11:28:12.526Z,13.38
2022-12-20T11:31:13.883Z,15.58
2022-12-20T11:34:03.478Z,17.62
2022-12-20T11:37:07.316Z,18.99
2022-12-20T11:39:53.381Z,15.74
2022-12-20T11:43:00.807Z,13.81
2022-12-20T11:46:01.944Z,12.15
2022-12-20T11:48:59.097Z,11.74
2022-12-20T11:51:48.422Z,12.85
2022-12-20T11:54:28.840Z,13.80
2022-12-20T11:57:26.655Z,12.74
2022-12-20T12:00:00.287Z,12.42
2022-12-20T12:02:42.222Z,10.82
2022-12-20T12:05:34.010Z,9.62
2022-12-20T12:08:17.979Z,8.86
2022-12-20T12:11:06.488Z,8.44
2022-12-20T12:13:40.314Z,7.97
2022-12-20T12:16:28.357Z,7.35
2022-12-20T12:18:59.631Z,7.18
2022-12-20T12:21:37.886Z,7.21
2022-12-20T12:24:29.280Z,7.22
2022-12-20T12:27:00.121Z,6.77
2022-12-20T12:29:31.018Z,6.57
2022-12-20T12:32:14.948Z,6.54
2022-12-20T12:35:15.860Z,6.39
2022-12-20T12:38:24.374Z,5.74
2022-12-20T12:41:34.509Z,5.77
2022-12-20T12:44:25.905Z,5.41
2022-12-20T12:47:41.897Z,5.14
2022-12-20T12:50:23.366Z,4.97
2022-12-20T12:52:55.993Z,4.92
2022-12-20T12:55:44.771Z,5.00
2022-12-20T12:58:24.003Z,4.88
2022-12-20T13:01:01.521Z,4.81
2022-12-20T13:03:43.850Z,4.78
2022-12-20T13:06:23.682Z,4.73
2022-12-20T13:09:20.280Z,4.96
2022-12-20T13:11:53.729Z,4.99
2022-12-20T13:14:29.627Z,4.97
2022-12-20T13:17:12.361Z,4.83
2022-12-20T13:19:55.109Z,4.70
2022-12-20T13:22:24.834Z,4.50
2022-12-20T13:25:04.215Z,4.45
2022-12-20T13:27:41.755Z,4.30
2022-12-20T13:30:14.943Z,4.32
2022-12-20T13:32:48.694Z,4.22
2022-12-20T13:35:25.406Z,4.14
2022-12-20T13:38:12.411Z,4.15
2022-12-20T13:40:46.080Z,4.08
2022-12-20T13:43:22.620Z,4.05
2022-12-20T13:45:55.280Z,4.01
2022-12-20T13:48:33.718Z,4.04
2022-12-20T13:51:02.563Z,3.84
2022-12-20T13:53:31.450Z,3.92
2022-12-20T13:55:58.827Z,3.96
2022-12-20T13:58:34.473Z,3.78
2022-12-20T14:01:11.697Z,4.01
2022-12-20T14:03:48.135Z,4.32
2022-12-20T14:06:26.104Z,4.77
2022-12-20T14:08:54.686Z,5.21
2022-12-20T14:11:27.704Z,5.38
2022-12-20T14:14:00.030Z,4.86
2022-12-20T14:16:30.448Z,4.31
2022-12-20T14:19:05.199Z,4.02
2022-12-20T14:21:40.288Z,3.88
2022-12-20T14:24:17.830Z,3.73
2022-12-20T14:26:52.775Z,3.45
2022-12-20T14:29:30.183Z,3.29
2022-12-20T14:31:57.530Z,3.19
2022-12-20T14:34:36.722Z,3.11
2022-12-20T14:37:29.064Z,3.12
2022-12-20T14:40:18.068Z,2.90
2022-12-20T14:42:46.015Z,2.87
2022-12-20T14:45:13.751Z,2.90
2022-12-20T14:48:12.633Z,2.83
2022-12-20T14:50:41.018Z,2.76
2022-12-20T14:53:29.983Z,2.65
2022-12-20T14:55:58.042Z,2.69
2022-12-20T14:58:35.155Z,2.64
2022-12-20T15:01:22.271Z,2.70
2022-12-20T15:03:58.680Z,2.74
2022-12-20T15:06:48.348Z,2.66
2022-12-20T15:09:16.864Z,2.75
2022-12-20T15:11:46.622Z,2.74
2022-12-20T15:14:40.914Z,2.65
2022-12-20T15:17:15.828Z,2.52
2022-12-20T15:19:44.061Z,2.62
2022-12-20T15:22:19.015Z,2.52
2022-12-20T15:24:46.341Z,2.48
2022-12-20T15:27:16.978Z,2.47
2022-12-20T15:29:44.424Z,2.44
2022-12-20T15:32:31.024Z,2.58
2022-12-20T15:34:58.435Z,2.53
2022-12-20T15:37:26.015Z,2.41
2022-12-20T15:39:53.253Z,2.53
2022-12-20T15:42:23.068Z,2.40
2022-12-20T15:44:50.870Z,2.37
2022-12-20T15:47:18.498Z,2.33
2022-12-20T15:49:50.268Z,2.41
2022-12-20T15:52:24.154Z,2.35
2022-12-20T15:54:51.661Z,2.29
2022-12-20T15:57:19.298Z,2.25
2022-12-20T16:00:03.685Z,2.22
2022-12-20T16:02:33.531Z,2.30
2022-12-20T16:05:01.775Z,2.23
2022-12-20T16:07:29.576Z,2.18
2022-12-20T16:09:57.049Z,2.07
2022-12-20T16:12:33.342Z,2.07
2022-12-20T16:15:00.689Z,2.02
2022-12-20T16:17:28.332Z,1.98
2022-12-20T16:19:55.752Z,1.95
2022-12-20T16:22:25.029Z,1.85
2022-12-20T16:24:52.542Z,1.80
2022-12-20T16:27:20.598Z,1.74
2022-12-20T16:29:47.947Z,1.77
2022-12-20T16:32:24.363Z,1.73
2022-12-20T16:34:52.702Z,1.78
2022-12-20T16:37:20.803Z,1.94
2022-12-20T16:39:48.864Z,1.88
2022-12-20T16:42:22.405Z,1.87
2022-12-20T16:44:54.492Z,1.74
2022-12-20T16:47:22.671Z,1.69
2022-12-20T16:49:53.349Z,1.75
2022-12-20T16:52:23.212Z,1.84
2022-12-20T16:54:51.371Z,1.94
2022-12-20T16:57:21.426Z,1.83
2022-12-20T16:59:49.120Z,1.83
2022-12-20T17:02:28.746Z,1.90
2022-12-20T17:04:56.746Z,1.91
2022-12-20T17:07:24.894Z,1.88
2022-12-20T17:10:11.399Z,1.83
2022-12-20T17:12:39.045Z,2.08
2022-12-20T17:15:11.045Z,1.89
2022-12-20T17:17:38.625Z,1.82
2022-12-20T17:20:06.862Z,1.90
2022-12-20T17:22:34.531Z,1.78
2022-12-20T17:25:01.877Z,1.78
2022-12-20T17:27:29.482Z,1.92
2022-12-20T17:29:56.875Z,1.90
2022-12-20T17:32:26.196Z,1.89
2022-12-20T17:34:54.472Z,1.85
2022-12-20T17:37:22.269Z,1.82
2022-12-20T17:39:49.634Z,1.87
2022-12-20T17:42:17.614Z,1.87
2022-12-20T17:44:46.477Z,1.99
2022-12-20T17:47:14.296Z,1.98
2022-12-20T17:49:41.552Z,1.98
2022-12-20T17:52:15.905Z,1.89
2022-12-20T17:54:43.320Z,1.92
2022-12-20T17:57:15.567Z,1.97
2022-12-20T17:59:43.491Z,1.92
2022-12-20T18:02:29.321Z,1.98
2022-12-20T18:04:56.944Z,1.96
2022-12-20T18:07:24.706Z,1.86
2022-12-20T18:09:52.041Z,1.88
2022-12-20T18:12:19.667Z,1.86
2022-12-20T18:14:49.966Z,1.93
2022-12-20T18:17:17.756Z,1.98
2022-12-20T18:19:45.713Z,1.86
2022-12-20T18:22:14.691Z,1.82
2022-12-20T18:24:42.122Z,1.80
2022-12-20T18:27:09.989Z,1.83
2022-12-20T18:29:37.394Z,1.79
2022-12-20T18:32:05.656Z,1.75
2022-12-20T18:34:33.044Z,1.83
2022-12-20T18:37:01.978Z,1.77
2022-12-20T18:39:30.544Z,1.77
2022-12-20T18:41:58.235Z,1.81
2022-12-20T18:44:25.613Z,1.84
2022-12-20T18:46:53.811Z,1.84
2022-12-20T18:49:21.648Z,1.72
2022-12-20T18:51:49.624Z,1.87
2022-12-20T18:54:17.029Z,1.73
2022-12-20T18:56:44.604Z,1.72
2022-12-20T18:59:13.076Z,1.64
2022-12-20T19:01:42.546Z,1.69
2022-12-20T19:04:11.378Z,1.56
2022-12-20T19:06:39.369Z,1.56
2022-12-20T19:09:10.753Z,1.54
2022-12-20T19:11:38.906Z,1.49
2022-12-20T19:14:07.906Z,1.43
2022-12-20T19:16:37.039Z,1.51
2022-12-20T19:19:04.659Z,1.48
2022-12-20T19:21:35.638Z,1.47
2022-12-20T19:24:07.074Z,1.39
2022-12-20T19:26:37.759Z,1.46
2022-12-20T19:29:06.692Z,1.39
2022-12-20T19:31:37.702Z,1.28
2022-12-20T19:34:12.685Z,1.24
2022-12-20T19:36:46.005Z,1.29
2022-12-20T19:39:20.119Z,1.28
2022-12-20T19:42:15.552Z,1.21
2022-12-20T19:44:35.841Z,1.29
2022-12-20T19:47:06.443Z,1.28
2022-12-20T19:49:36.105Z,1.34
2022-12-20T19:52:05.988Z,1.27
2022-12-20T19:54:34.166Z,1.24
2022-12-20T19:57:02.084Z,1.25
2022-12-20T19:59:30.849Z,1.22
2022-12-20T20:01:58.788Z,1.21
2022-12-20T20:04:26.808Z,1.21
2022-12-20T20:06:56.425Z,1.25
2022-12-20T20:09:23.772Z,1.34
2022-12-20T20:11:51.819Z,1.35
2022-12-20T20:14:19.102Z,1.33
2022-12-20T20:16:46.713Z,1.27
2022-12-20T20:19:14.070Z,1.23
2022-12-20T20:21:42.014Z,1.22
2022-12-20T20:24:09.895Z,1.17
2022-12-20T20:26:37.849Z,1.29
2022-12-20T20:29:07.068Z,1.31
2022-12-20T20:31:34.781Z,1.29
2022-12-20T20:34:03.294Z,1.33
2022-12-20T20:36:31.027Z,1.26
2022-12-20T20:38:58.301Z,1.25
2022-12-20T20:41:25.985Z,1.41
2022-12-20T20:43:53.386Z,1.49
2022-12-20T20:46:21.081Z,1.39
2022-12-20T20:48:48.416Z,1.45
2022-12-20T20:51:16.157Z,1.39
2022-12-20T20:53:43.739Z,1.44
2022-12-20T20:56:12.262Z,1.37
2022-12-20T20:58:39.666Z,1.45
2022-12-20T21:01:11.377Z,1.47
2022-12-20T21:03:40.293Z,1.40
2022-12-20T21:08:56.406Z,1.42
2022-12-20T21:11:30.212Z,1.58
2022-12-20T21:13:58.249Z,1.50
2022-12-20T21:16:26.309Z,1.52
2022-12-20T21:18:58.822Z,1.57
2022-12-20T21:21:27.247Z,1.53
2022-12-20T21:23:55.774Z,1.46
2022-12-20T21:26:25.573Z,1.62
2022-12-20T21:29:01.123Z,1.63
2022-12-20T21:31:29.248Z,1.72
2022-12-20T21:33:57.203Z,1.63
2022-12-20T21:36:25.401Z,1.66
2022-12-20T21:38:56.374Z,1.78
2022-12-20T21:41:28.221Z,1.65
2022-12-20T21:43:58.438Z,1.69
2022-12-20T21:46:29.564Z,1.78
2022-12-20T21:48:57.031Z,1.74
2022-12-20T21:51:27.254Z,1.78
2022-12-20T21:54:00.872Z,1.69
2022-12-20T21:56:31.775Z,1.68
2022-12-20T21:58:59.633Z,1.75
2022-12-20T22:01:29.931Z,1.68
2022-12-20T22:04:04.087Z,1.78
2022-12-20T22:06:32.498Z,1.85
2022-12-20T22:09:02.221Z,1.92
2022-12-20T22:11:29.812Z,1.90
2022-12-20T22:13:58.006Z,2.08
2022-12-20T22:16:30.322Z,1.92
2022-12-20T22:18:59.677Z,1.97
2022-12-20T22:21:33.699Z,2.01
2022-12-20T22:24:02.176Z,1.97
2022-12-20T22:26:33.328Z,1.96
2022-12-20T22:29:06.493Z,1.96
2022-12-20T22:31:35.680Z,1.93
2022-12-20T22:34:03.605Z,2.10
2022-12-20T22:36:31.963Z,2.05
2022-12-20T22:38:59.537Z,2.02
2022-12-20T22:41:30.570Z,2.04
2022-12-20T22:43:59.619Z,2.16
2022-12-20T22:46:32.257Z,2.19
2022-12-20T22:49:01.580Z,2.14
2022-12-20T22:51:33.606Z,2.13
2022-12-20T22:54:01.308Z,2.08
2022-12-20T22:56:29.020Z,2.11
2022-12-20T22:58:56.613Z,2.10
2022-12-20T23:01:30.598Z,2.11
2022-12-20T23:03:58.057Z,2.17
2022-12-20T23:06:25.846Z,2.07
2022-12-20T23:08:53.262Z,2.18
2022-12-20T23:11:43.937Z,2.14
2022-12-20T23:14:39.938Z,1.99
2022-12-20T23:17:10.159Z,1.97
2022-12-20T23:19:56.810Z,1.87
2022-12-20T23:22:43.428Z,1.88
2022-12-20T23:25:16.733Z,1.89
2022-12-20T23:27:47.896Z,1.81
2022-12-20T23:30:21.879Z,1.70
2022-12-20T23:32:49.927Z,1.87
2022-12-20T23:35:20.861Z,1.80
2022-12-20T23:37:48.881Z,1.94
2022-12-20T23:40:17.494Z,1.82
2022-12-20T23:42:45.867Z,1.67
2022-12-20T23:45:13.771Z,1.70
2022-12-20T23:47:41.429Z,1.76
2022-12-20T23:50:09.407Z,1.61
2022-12-20T23:52:36.994Z,1.73
2022-12-20T23:55:05.050Z,1.68
2022-12-20T23:57:33.248Z,1.59
